CST,Max TemperatureF,Mean TemperatureF,Min TemperatureF,Max Dew PointF,MeanDew PointF,Min DewpointF,Max Humidity, Mean Humidity, Min Humidity, Max Sea Level PressureIn, Mean Sea Level PressureIn, Min Sea Level PressureIn, Max VisibilityMiles, Mean VisibilityMiles, Min VisibilityMiles, Max Wind SpeedMPH, Mean Wind SpeedMPH, Max Gust SpeedMPH,PrecipitationIn, CloudCover, Events, WindDirDegrees
2012-11-1,48,38,26,39,30,25,93,77,56,30.09,30.05,29.97,10,10,7,16,12,22,0.00,4,,11
2012-11-2,37,30,24,30,27,21,93,80,70,30.17,30.12,30.07,10,10,10,12,6,,0.00,4,,122
2012-11-3,42,38,33,39,33,28,100,83,66,30.21,30.19,30.16,10,9,4,6,2,,0.00,8,Rain,198
2012-11-4,39,37,35,39,37,36,100,98,87,30.20,30.17,30.13,10,5,1,9,2,,0.00,8,,56
2012-11-5,37,35,33,37,36,34,100,99,93,30.18,30.10,29.88,10,6,2,15,7,18,0.00,7,Rain-Snow,40
2012-11-6,44,40,37,41,37,34,100,86,71,30.05,29.90,29.79,10,9,5,25,12,32,0.01,7,Rain,339
2012-11-7,48,39,30,37,34,28,100,81,58,30.12,30.05,29.94,10,10,10,14,7,23,0.00,1,,241
2012-11-8,53,43,33,39,35,34,100,82,54,30.04,29.94,29.86,10,10,7,17,11,23,0.00,1,,25
2012-11-9,48,40,32,41,37,32,100,88,76,30.04,29.96,29.82,10,9,5,21,11,30,0.00,3,,103
2012-11-10,64,50,37,55,46,37,100,89,64,29.81,29.57,29.44,10,6,2,22,15,31,0.49,7,Rain-Thunderstorm,180
2012-11-11,35,26,17,36,19,12,100,80,68,29.96,29.84,29.61,10,10,10,22,15,31,0.00,6,,319
2012-11-12,26,22,17,18,16,12,93,81,69,30.28,30.10,29.94,10,9,2,17,11,24,0.00,5,Snow,310
2012-11-13,44,30,17,28,23,14,93,71,46,30.28,30.25,30.22,10,10,10,9,5,,0.00,3,,220
2012-11-14,53,40,28,36,31,27,93,70,47,30.24,30.18,30.10,10,10,10,12,4,,0.00,3,,220
2012-11-15,42,32,21,34,27,19,93,76,52,30.50,30.31,30.09,10,10,10,21,8,25,0.00,1,,343
2012-11-16,42,28,15,30,22,16,100,73,42,30.50,30.37,30.19,10,10,10,13,6,20,0.00,0,,187
2012-11-17,59,48,37,37,35,30,81,64,45,30.19,30.12,30.06,10,10,7,22,12,30,0.00,0,,204
2012-11-18,59,47,35,37,35,30,87,63,45,30.06,30.01,29.97,10,10,10,15,10,22,0.00,0,,195
2012-11-19,55,44,32,41,37,32,100,73,54,30.14,30.03,29.96,10,10,7,13,8,17,0.00,0,,300
2012-11-20,55,39,23,37,30,23,100,76,38,30.21,30.10,29.93,10,6,0,13,5,18,0.00,2,Fog-Snow,208
2012-11-21,62,50,37,43,37,34,87,62,37,29.93,29.81,29.60,10,10,10,13,8,18,0.00,0,,214
2012-11-22,55,39,23,41,31,18,100,75,50,30.17,29.83,29.58,10,10,0,30,14,40,0.02,5,Snow,333
2012-11-23,24,17,10,18,13,9,100,80,64,30.45,30.38,30.18,10,10,7,30,21,40,0.00,5,Snow,358
2012-11-24,35,22,8,21,15,7,100,75,52,30.37,30.03,29.80,10,10,10,17,5,21,0.00,5,,218
2012-11-25,33,26,17,27,21,10,93,77,60,30.25,30.02,29.85,10,10,10,22,13,29,0.00,8,,1
2012-11-26,32,19,6,10,7,3,85,71,38,30.47,30.37,30.25,10,10,10,18,10,25,0.00,1,,331
2012-11-27,37,26,15,25,20,10,100,76,44,30.29,30.18,30.09,10,10,10,13,7,17,0.00,1,,291
2012-11-28,41,30,19,27,23,18,100,79,56,30.33,30.20,30.04,10,10,7,14,5,17,0.00,3,,222
2012-11-29,39,28,17,27,23,18,100,83,61,30.09,30.05,30.01,10,10,7,21,6,20,0.00,1,,101
2012-11-30,35,26,17,34,27,18,100,93,81,30.17,30.08,29.95,10,6,3,16,7,20,0.00,3,,152